Camalau, Brazil
Current Conditions -  °F | °C
As of 11:00 PM on Saturday 22 Nov 2014 (Local Time) from SBKG Reporting Station
Broken Clouds Broken Clouds  
Wind Chill: 70°   Ceiling: 1400
Heat Index: 70°   Visibility: 6mi
Dew Point: 68°   Wind: 10mph
Humidity: 94%   Direction: 80°E
Pressure: 30"   Gusts: NA
Location:  7.89°S, 36.82°W
Report Text: SBKG 230200Z 08009KT 9999 SCT005 BKN014 21/20 Q1016
Loading
Personal Weather Stations






























Interactive Weather Map New forecast layout! Learn more

10-Day Weather Forecast

Advertisements
Track Severe Weather on mobile